createdAt,value
2023-01-21T00:01:45.747Z,-1.44
2023-01-21T00:06:45.730Z,-1.38
2023-01-21T00:11:45.702Z,-1.36
2023-01-21T00:16:45.682Z,-1.36
2023-01-21T00:21:45.659Z,-1.35
2023-01-21T00:26:45.643Z,-1.41
2023-01-21T00:31:45.748Z,-1.32
2023-01-21T00:36:45.587Z,-1.32
2023-01-21T00:41:45.557Z,-1.32
2023-01-21T00:46:45.535Z,-1.29
2023-01-21T00:51:45.511Z,-1.26
2023-01-21T00:56:45.486Z,-1.25
2023-01-21T01:01:45.531Z,-1.28
2023-01-21T01:06:45.413Z,-1.21
2023-01-21T01:11:45.390Z,-1.21
2023-01-21T01:16:45.377Z,-1.15
2023-01-21T01:21:45.350Z,-1.05
2023-01-21T01:26:45.329Z,-1.07
2023-01-21T01:31:45.341Z,-1.03
2023-01-21T01:36:45.296Z,-1.02
2023-01-21T01:41:45.266Z,-0.99
2023-01-21T01:46:45.314Z,-0.97
2023-01-21T01:51:45.210Z,-0.96
2023-01-21T01:56:45.191Z,-0.90
2023-01-21T02:01:45.221Z,-0.92
2023-01-21T02:06:45.161Z,-0.97
2023-01-21T02:11:45.142Z,-0.99
2023-01-21T02:16:45.127Z,-1.13
2023-01-21T02:21:45.103Z,-1.10
2023-01-21T02:26:45.090Z,-1.07
2023-01-21T02:31:45.115Z,-1.10
2023-01-21T02:36:45.028Z,-1.10
2023-01-21T02:41:45.002Z,-1.11
2023-01-21T02:46:45.019Z,-1.03
2023-01-21T02:51:44.932Z,-1.05
2023-01-21T02:56:44.911Z,-1.07
2023-01-21T03:01:44.972Z,-1.00
2023-01-21T03:06:44.862Z,-0.97
2023-01-21T03:11:44.845Z,-0.97
2023-01-21T03:16:44.818Z,-1.02
2023-01-21T03:21:44.796Z,-0.96
2023-01-21T03:26:44.771Z,-0.93
2023-01-21T03:31:44.814Z,-0.96
2023-01-21T03:36:44.714Z,-0.92
2023-01-21T03:41:44.680Z,-0.81
2023-01-21T03:46:44.652Z,-0.74
2023-01-21T03:51:44.606Z,-0.86
2023-01-21T03:56:44.583Z,-0.86
2023-01-21T04:01:44.577Z,-0.90
2023-01-21T04:06:44.542Z,-0.83
2023-01-21T04:11:44.514Z,-0.74
2023-01-21T04:16:44.561Z,-0.70
2023-01-21T04:21:44.484Z,-0.73
2023-01-21T04:26:44.446Z,-0.73
2023-01-21T04:31:44.455Z,-0.76
2023-01-21T04:36:44.387Z,-0.71
2023-01-21T04:41:44.369Z,-0.77
2023-01-21T04:46:44.342Z,-0.78
2023-01-21T04:51:44.329Z,-0.70
2023-01-21T04:56:44.296Z,-0.76
2023-01-21T05:01:44.279Z,-0.70
2023-01-21T05:06:44.257Z,-0.74
2023-01-21T05:11:44.237Z,-0.73
2023-01-21T05:16:44.212Z,-0.68
2023-01-21T05:21:44.170Z,-0.60
2023-01-21T05:26:44.142Z,-0.59
2023-01-21T05:31:44.244Z,-0.62
2023-01-21T05:36:44.079Z,-0.68
2023-01-21T05:41:44.053Z,-0.73
2023-01-21T05:46:44.017Z,-0.71
2023-01-21T05:51:44.005Z,-0.65
2023-01-21T05:56:43.975Z,-0.65
2023-01-21T06:01:43.935Z,-0.65
2023-01-21T06:06:43.902Z,-0.70
2023-01-21T06:11:43.866Z,-0.76
2023-01-21T06:16:43.854Z,-0.74
2023-01-21T06:21:43.816Z,-0.74
2023-01-21T06:26:43.779Z,-0.73
2023-01-21T06:31:43.904Z,-0.74
2023-01-21T06:36:43.723Z,-0.71
2023-01-21T06:41:43.693Z,-0.67
2023-01-21T06:46:52.200Z,-0.59
2023-01-21T06:51:43.675Z,-0.58
2023-01-21T06:56:43.657Z,-0.65
2023-01-21T07:01:43.622Z,-0.58
2023-01-21T07:06:43.588Z,-0.52
2023-01-21T07:11:43.556Z,-0.50
2023-01-21T07:16:43.530Z,-0.42
2023-01-21T07:21:43.500Z,-0.31
2023-01-21T07:26:43.490Z,-0.26
2023-01-21T07:31:43.491Z,-0.24
2023-01-21T07:36:43.443Z,-0.19
2023-01-21T07:41:43.426Z,-0.12
2023-01-21T07:46:43.505Z,-0.03
2023-01-21T07:51:43.388Z,0.07
2023-01-21T07:56:43.364Z,0.15
2023-01-21T08:01:43.505Z,0.15
2023-01-21T08:06:43.323Z,0.16
2023-01-21T08:11:43.291Z,0.20
2023-01-21T08:16:43.258Z,0.22
2023-01-21T08:21:43.226Z,0.25
2023-01-21T08:26:43.207Z,0.31
2023-01-21T08:31:43.231Z,0.33
2023-01-21T08:36:43.167Z,0.31
2023-01-21T08:41:43.137Z,0.41
2023-01-21T08:46:43.099Z,0.49
2023-01-21T08:51:43.073Z,0.45
2023-01-21T08:56:43.061Z,0.52
2023-01-21T09:01:43.046Z,0.53
2023-01-21T09:06:43.017Z,0.48
2023-01-21T09:11:43.004Z,0.64
2023-01-21T09:16:43.016Z,0.68
2023-01-21T09:21:42.969Z,0.71
2023-01-21T09:26:42.932Z,0.81
2023-01-21T09:31:42.936Z,0.84
2023-01-21T09:36:42.884Z,0.82
2023-01-21T09:41:42.868Z,0.84
2023-01-21T09:46:42.845Z,0.90
2023-01-21T09:51:42.821Z,0.96
2023-01-21T09:56:42.763Z,0.96
2023-01-21T10:01:42.738Z,1.10
2023-01-21T10:06:42.702Z,1.31
2023-01-21T10:11:44.633Z,1.52
2023-01-21T10:16:42.752Z,1.60
2023-01-21T10:21:42.635Z,1.63
2023-01-21T10:26:42.584Z,1.54
2023-01-21T10:31:42.683Z,1.70
2023-01-21T10:36:42.512Z,1.65
2023-01-21T10:41:42.485Z,1.74
2023-01-21T10:46:42.451Z,1.85
2023-01-21T10:51:42.423Z,1.81
2023-01-21T10:56:42.390Z,1.75
2023-01-21T11:01:42.429Z,1.86
2023-01-21T11:06:42.309Z,1.81
2023-01-21T11:11:42.297Z,1.85
2023-01-21T11:16:42.271Z,1.92
2023-01-21T11:21:42.256Z,2.04
2023-01-21T11:26:42.227Z,2.08
2023-01-21T11:31:42.298Z,2.09
2023-01-21T11:36:42.177Z,1.88
2023-01-21T11:41:42.154Z,1.98
2023-01-21T11:46:42.117Z,1.98
2023-01-21T11:51:42.101Z,1.93
2023-01-21T11:56:42.066Z,2.11
2023-01-21T12:01:42.114Z,2.23
2023-01-21T12:06:42.025Z,2.14
2023-01-21T12:11:42.003Z,2.20
2023-01-21T12:16:41.987Z,2.27
2023-01-21T12:21:41.958Z,2.20
2023-01-21T12:26:41.956Z,2.19
2023-01-21T12:31:41.976Z,2.22
2023-01-21T12:36:41.889Z,2.22
2023-01-21T12:41:41.863Z,2.41
2023-01-21T12:46:41.894Z,2.44
2023-01-21T12:51:41.806Z,2.48
2023-01-21T12:56:41.778Z,2.56
2023-01-21T13:01:41.781Z,2.59
2023-01-21T13:06:53.236Z,2.56
2023-01-21T13:11:41.718Z,2.55
2023-01-21T13:16:41.782Z,2.62
2023-01-21T13:21:41.650Z,2.62
2023-01-21T13:26:41.621Z,2.50
2023-01-21T13:31:41.615Z,2.48
2023-01-21T13:36:41.564Z,2.44
2023-01-21T13:41:41.559Z,2.44
2023-01-21T13:46:41.558Z,2.47
2023-01-21T13:51:41.507Z,2.47
2023-01-21T13:56:41.485Z,2.38
2023-01-21T14:01:41.511Z,2.37
2023-01-21T14:06:41.449Z,2.26
2023-01-21T14:11:41.420Z,2.25
2023-01-21T14:16:41.434Z,2.25
2023-01-21T14:21:41.402Z,2.23
2023-01-21T14:26:41.377Z,2.20
2023-01-21T14:31:41.398Z,2.19
2023-01-21T14:36:41.324Z,2.19
2023-01-21T14:41:41.319Z,2.15
2023-01-21T14:46:41.246Z,2.19
2023-01-21T14:51:41.233Z,2.19
2023-01-21T14:56:41.173Z,2.15
2023-01-21T15:01:41.159Z,2.12
2023-01-21T15:06:41.117Z,2.09
2023-01-21T15:11:41.096Z,2.12
2023-01-21T15:16:41.122Z,2.12
2023-01-21T15:21:41.045Z,2.12
2023-01-21T15:26:41.027Z,2.18
2023-01-21T15:31:41.187Z,2.14
2023-01-21T15:36:40.962Z,2.15
2023-01-21T15:41:40.947Z,2.20
2023-01-21T15:46:40.891Z,2.23
2023-01-21T15:51:40.887Z,2.25
2023-01-21T15:56:42.627Z,2.25
2023-01-21T16:01:40.855Z,2.26
2023-01-21T16:06:40.799Z,2.27
2023-01-21T16:11:40.786Z,2.20
2023-01-21T16:16:40.784Z,2.11
2023-01-21T16:21:41.095Z,2.09
2023-01-21T16:26:40.695Z,2.07
2023-01-21T16:31:42.458Z,1.95
2023-01-21T16:36:40.643Z,1.81
2023-01-21T16:41:40.571Z,1.71
2023-01-21T16:46:42.115Z,1.60
2023-01-21T16:51:40.543Z,1.46
2023-01-21T16:56:40.541Z,1.25
2023-01-21T17:01:40.503Z,0.99
2023-01-21T17:06:40.448Z,0.84
2023-01-21T17:11:40.433Z,0.78
2023-01-21T17:16:40.419Z,0.78
2023-01-21T17:21:40.404Z,0.77
2023-01-21T17:26:40.388Z,0.72
2023-01-21T17:31:40.536Z,0.68
2023-01-21T17:36:40.600Z,0.67
2023-01-21T17:41:40.295Z,0.64
2023-01-21T17:46:40.331Z,0.53
2023-01-21T17:51:40.268Z,0.51
2023-01-21T17:56:40.225Z,0.44
2023-01-21T18:01:40.189Z,0.40
2023-01-21T18:06:40.177Z,0.41
2023-01-21T18:11:40.151Z,0.40
2023-01-21T18:16:40.138Z,0.41
2023-01-21T18:21:40.167Z,0.41
2023-01-21T18:26:40.121Z,0.37
2023-01-21T18:31:40.279Z,0.37
2023-01-21T18:36:40.021Z,0.38
2023-01-21T18:41:40.006Z,0.41
2023-01-21T18:46:40.052Z,0.44
2023-01-21T18:51:39.960Z,0.48
2023-01-21T18:56:39.893Z,0.44
2023-01-21T19:01:39.918Z,0.45
2023-01-21T19:06:39.871Z,0.44
2023-01-21T19:11:39.814Z,0.45
2023-01-21T19:16:39.790Z,0.43
2023-01-21T19:21:39.770Z,0.45
2023-01-21T19:26:39.778Z,0.45
2023-01-21T19:31:39.866Z,0.43
2023-01-21T19:36:39.704Z,0.44
2023-01-21T19:41:39.700Z,0.43
2023-01-21T19:46:39.705Z,0.48
2023-01-21T19:51:39.634Z,0.43
2023-01-21T19:56:39.610Z,0.38
2023-01-21T20:01:39.663Z,0.41
2023-01-21T20:06:39.579Z,0.40
2023-01-21T20:11:39.572Z,0.40
2023-01-21T20:16:39.611Z,0.43
2023-01-21T20:21:46.096Z,0.41
2023-01-21T20:26:39.439Z,0.41
2023-01-21T20:31:39.468Z,0.40
2023-01-21T20:36:39.369Z,0.41
2023-01-21T20:41:39.348Z,0.44
2023-01-21T20:46:39.335Z,0.48
2023-01-21T20:51:39.333Z,0.48
2023-01-21T20:56:39.283Z,0.48
2023-01-21T21:01:39.290Z,0.48
2023-01-21T21:06:39.234Z,0.43
2023-01-21T21:11:40.157Z,0.43
2023-01-21T21:16:39.245Z,0.43
2023-01-21T21:21:39.178Z,0.41
2023-01-21T21:26:39.156Z,0.43
2023-01-21T21:31:39.252Z,0.43
2023-01-21T21:36:39.127Z,0.41
2023-01-21T21:41:39.070Z,0.40
2023-01-21T21:46:39.031Z,0.35
2023-01-21T21:51:39.025Z,0.38
2023-01-21T21:56:39.235Z,0.40
2023-01-21T22:01:39.193Z,0.41
2023-01-21T22:06:38.986Z,0.40
2023-01-21T22:11:38.918Z,0.38
2023-01-21T22:16:38.884Z,0.43
2023-01-21T22:21:38.931Z,0.44
2023-01-21T22:26:38.839Z,0.44
2023-01-21T22:31:38.961Z,0.45
2023-01-21T22:36:38.866Z,0.41
2023-01-21T22:41:38.797Z,0.41
2023-01-21T22:46:38.758Z,0.40
2023-01-21T22:51:38.744Z,0.43
2023-01-21T22:56:51.486Z,0.48
2023-01-21T23:01:38.924Z,0.49
2023-01-21T23:06:38.735Z,0.45
2023-01-21T23:11:38.836Z,0.51
2023-01-21T23:16:38.604Z,0.53
2023-01-21T23:21:38.619Z,0.52
2023-01-21T23:26:38.593Z,0.56
2023-01-21T23:31:38.759Z,0.57
2023-01-21T23:36:38.493Z,0.60
2023-01-21T23:41:38.481Z,0.63
2023-01-21T23:46:38.427Z,0.64
2023-01-21T23:51:38.406Z,0.63
2023-01-21T23:56:39.659Z,0.64
